Kedves Pilóták, Oktatók, Növendékek!

Az alábbi menüpontban szeretnénk összefoglalni néhány fontos és hasznos információt, linket, amely segíthet a repülések megtervezésében.

Ha bármilyen javaslatod van a tartalommal kapcsolatban, kérlek Ez az e-mail-cím a szpemrobotok elleni védelem alatt áll. Megtekintéséhez engedélyeznie kell a JavaScript használatát.meg nekünk.

 

Jó leszállást!

Repüléssel kapcsolatos hírek

2020. január 25.

IHO.hu - - Repülés RSS

Felhőkép 

Felhőkép

Széltérkép

Széltérkép

Győr-Pér Repülőtér

Élő webkamera kép

 Nagyobb kép

Győr-Pér Repülőtér

[Source: ADDS]
METAR
LHPR 251815Z AUTO VRB03KT 6000 OVC004 M01/M02 Q1024 =
LHPR 251715Z 2518/2603 VRB02KT 5000 BR OVC005 BECMG 2518/2521 2500 BR OVC002 TEMPO 2521/2603 0800 FZFG OVC001
TAF
LHPR 251715Z 2518/2603 VRB02KT 5000 BR OVC005 BECMG 2518/2521 2500 BR OVC002 TEMPO 2521/2603 0800 FZFG OVC001 =
SR / SS: 06:23 / 15:38 UTC (Napkelte / Napnyugta 2020-01-25)

Kapcsolat

Telephely:     9099 Pér, Repülõtér

Klubhelyiség: 9021 Gyõr, Városház tér 3.

E-mail: info@aeroclub-gyor.hu

Telefon: 06-20-777-9106

Adószám: 19113832-2-08

JSN Metro template designed by JoomlaShine.com